Aviation Digital Data Service (ADDS)

Output produced by METARs form (2316 UTC 28 January 2020)
found at http://aviationweather.gov/metar/data/
 
KIPJ 282315Z AUTO 00000KT 10SM CLR 08/M01 A2996 RMK AO2 T00811010
KIPJ 282255Z AUTO 00000KT 10SM CLR 11/M01 A2995 RMK AO2 T01111015
KIPJ 282235Z AUTO 00000KT 10SM CLR 12/M02 A2995 RMK AO2 T01171018